Nearby METAR Reports

 

KMQS - Coatesville, Pennsylvania, USA
Distance from station: NW 12mi, 19km
Updated: Sat, 21-Sep-2019 2:35am EDT
Clear
Clear
 Wind from W
Wind: W 5 mph , 7 km/h
Temperature: 61°F , 16°C
Dew Point: 55°F , 13°C
Humidity: 83%
Barometer: 30.25 inHg , 1024.4 hPa
Clouds: Clear
Visibility: 10 miles , 16 km
2019/09/21 06:35 KMQS 210635Z AUTO 27004KT 10SM CLR 16/13 A3025 RMK AO2
KOQN - West Chester, Pennsylvania, USA
Distance from station: NE 13mi, 21km
Updated: Sat, 21-Sep-2019 2:35am EDT
Clear
Clear
 Wind from calm
Wind: Calm
Temperature: 55°F , 13°C
Dew Point: 52°F , 11°C
Humidity: 88%
Barometer: 30.24 inHg , 1024 hPa
Clouds: Clear
Visibility: 10 miles , 16 km
2019/09/21 06:35 KOQN 210635Z AUTO 00000KT 10SM CLR 13/11 A3024 RMK AO2
 
KILG - Wilmington, Delaware, USA
Distance from station: SSE 14mi, 23km
Updated: Sat, 21-Sep-2019 2:51am EDT
Clear
Clear
 Wind from calm
Wind: Calm
Temperature: 57°F , 14°C
Dew Point: 54°F , 12°C
Humidity: 88%
Barometer: 30.24 inHg , 1024 hPa
Clouds: Clear
Visibility: 10 miles , 16 km
2019/09/21 06:51 KILG 210651Z 00000KT 10SM CLR 14/12 A3024 RMK AO2 SLP240 T01390122 $
KPHL - Philadelphia, Pennsylvania, USA
Distance from station: E 27mi, 43km
Updated: Sat, 21-Sep-2019 1:54am EDT
Clear
Clear
 Wind from SW
Wind: SW 7 mph , 11 km/h
Temperature: 63°F , 17°C
Dew Point: 54°F , 12°C
Humidity: 73%
Barometer: 30.24 inHg , 1024 hPa
Clouds: Clear
Visibility: 10 miles , 16 km
2019/09/21 05:54 KPHL 210554Z 22006KT 10SM CLR 17/12 A3024 RMK AO2 SLP239 T01670122 10228 20167 51006 $
 
KPTW - Pottstown, Pennsylvania, USA
Distance from station: NNE 29mi, 47km
Updated: Sat, 21-Sep-2019 1:54am EDT
Clear
Clear
 Wind from calm
Wind: Calm
Temperature: 52°F , 11°C
Dew Point: 52°F , 11°C
Humidity: 100%
Barometer: 30.25 inHg , 1024.4 hPa
Clouds: Clear
Visibility: 9 miles , 14 km
2019/09/21 05:54 KPTW 210554Z AUTO 00000KT 9SM CLR 11/11 A3025 RMK AO2 SLP240 T01110106 10178 20106 51006
KLOM - Philly Wings F, Pennsylvania, USA
Distance from station: NE 32mi, 52km
Updated: Sat, 21-Sep-2019 2:35am EDT
Clear
Clear
 Wind from calm
Wind: Calm
Temperature: 52°F , 11°C
Dew Point: 52°F , 11°C
Humidity: 100%
Barometer: 30.24 inHg , 1024 hPa
Clouds: Clear
Visibility: 10 miles , 16 km
2019/09/21 06:35 KLOM 210635Z AUTO 00000KT 10SM CLR 11/11 A3024 RMK AO2 T01100106
 
KAPG - Aberdeen/Phillip, Maryland, USA
Distance from station: SW 34mi, 55km
Updated: Fri, 20-Sep-2019 7:52pm EDT
NOT Current
Few Clouds
Few Clouds
 Wind from calm
Wind: Calm
Temperature: 59°F , 15°C
Dew Point: 54°F , 12°C
Humidity: 82%
Barometer: 30.22 inHg , 1023.4 hPa
Clouds: Few Clouds
Visibility: 10 miles , 16 km
Cloud details: Few Clouds 20000 ft
2019/09/20 23:52 KAPG 202352Z 00000KT 10SM FEW200 15/12 A3022 RMK SLP237 53005
KLNS - Lancaster, Pennsylvania, USA
Distance from station: WNW 35mi, 57km
Updated: Sat, 21-Sep-2019 1:53am EDT
Clear
Clear
 Wind from ESE
Wind: ESE 3 mph , 6 km/h
Temperature: 54°F , 12°C
Dew Point: 52°F , 11°C
Humidity: 94%
Barometer: 30.24 inHg , 1024 hPa
Clouds: Clear
Visibility: 9 miles , 14 km
2019/09/21 05:53 KLNS 210553Z AUTO 12003KT 9SM CLR 12/11 A3024 RMK AO2 SLP240 T01220106 10217 20122 51007
 
KRDG - Reading, Pennsylvania, USA
Distance from station: NNW 38mi, 62km
Updated: Sat, 21-Sep-2019 1:54am EDT
Clear
Clear
 Wind from calm
Wind: Calm
Temperature: 55°F , 13°C
Dew Point: 54°F , 12°C
Humidity: 94%
Barometer: 30.22 inHg , 1023.4 hPa
Clouds: Clear
Visibility: 10 miles , 16 km
2019/09/21 05:54 KRDG 210554Z AUTO 00000KT 10SM CLR 13/12 A3022 RMK AO2 SLP237 T01330122 10206 20128 50005
KPNE - Philadelphia/Ne, Pennsylvania, USA
Distance from station: ENE 42mi, 67km
Updated: Sat, 21-Sep-2019 1:54am EDT
Clear
Clear
 Wind from WSW
Wind: WSW 6 mph , 9 km/h
Temperature: 61°F , 16°C
Dew Point: 54°F , 12°C
Humidity: 77%
Barometer: 30.24 inHg , 1024 hPa
Clouds: Clear
Visibility: 10 miles , 16 km
2019/09/21 05:54 KPNE 210554Z 25005KT 10SM CLR 16/12 A3024 RMK AO2 SLP239 T01610117 10211 20161 53003 $
 
KCKZ - Perkasie, Pennsylvania, USA
Distance from station: NNE 45mi, 72km
Updated: Sat, 21-Sep-2019 2:35am EDT
Clear
Clear
 Wind from calm
Wind: Calm
Temperature: 52°F , 11°C
Dew Point: 52°F , 11°C
Humidity: 100%
Barometer: 30.24 inHg , 1024 hPa
Clouds: Clear
Visibility: 10 miles , 16 km
2019/09/21 06:35 KCKZ 210635Z AUTO 00000KT 10SM CLR 11/11 A3024 RMK AO2
KUKT - Quakertown Arp, Pennsylvania, USA
Distance from station: NNE 45mi, 73km
Updated: Sat, 21-Sep-2019 2:40am EDT
Clear
Clear
 Wind from calm
Wind: Calm
Temperature: 50°F , 10°C
Dew Point: 50°F , 10°C
Humidity: 100%
Barometer: 30.23 inHg , 1023.7 hPa
Clouds: Clear
Visibility: 10 miles , 16 km
2019/09/21 06:40 KUKT 210640Z AUTO 00000KT 10SM CLR 10/10 A3023 RMK A01
 
KDYL - Doylestown, Pennsylvania, USA
Distance from station: NE 47mi, 76km
Updated: Sat, 21-Sep-2019 1:54am EDT
Clear
Clear
 Wind from S
Wind: S 3 mph , 6 km/h
Temperature: 57°F , 14°C
Dew Point: 52°F , 11°C
Humidity: 82%
Barometer: 30.22 inHg , 1023.4 hPa
Clouds: Clear
Visibility: 10 miles , 16 km
2019/09/21 05:54 KDYL 210554Z AUTO 18003KT 10SM CLR 14/11 A3022 RMK AO2 SLP230 T01440111 10178 20144 51004
KMIV - Millville, New Jersey, USA
Distance from station: SE 48mi, 77km
Updated: Sat, 21-Sep-2019 1:54am EDT
Clear
Clear
 Wind from calm
Wind: Calm
Temperature: 50°F , 10°C
Dew Point: 48°F , 9°C
Humidity: 94%
Barometer: 30.25 inHg , 1024.4 hPa
Clouds: Clear
Visibility: 10 miles , 16 km
2019/09/21 05:54 KMIV 210554Z AUTO 00000KT 10SM CLR 10/09 A3025 RMK AO2 SLP240 T01000089 10144 20094 53005
 
KVAY - Mount Holly, New Jersey, USA
Distance from station: E 48mi, 78km
Updated: Sat, 21-Sep-2019 1:54am EDT
Clear
Clear
 Wind from SW
Wind: SW 5 mph , 7 km/h
Temperature: 59°F , 15°C
Dew Point: 54°F , 12°C
Humidity: 82%
Barometer: 30.23 inHg , 1023.7 hPa
Clouds: Clear
Visibility: 10 miles , 16 km
2019/09/21 05:54 KVAY 210554Z AUTO 23004KT 10SM CLR 15/12 A3023 RMK AO2 SLP235 T01500117 10167 20117 53004